sensor_id;sensor_type;location;lat;lon;timestamp;temperature;humidity
57709;SHT35;42558;52.388;13.390;2024-03-17T00:00:12;3.51;76.68
57709;SHT35;42558;52.388;13.390;2024-03-17T00:02:43;3.39;77.06
57709;SHT35;42558;52.388;13.390;2024-03-17T00:05:13;3.28;77.56
57709;SHT35;42558;52.388;13.390;2024-03-17T00:07:43;3.23;77.94
57709;SHT35;42558;52.388;13.390;2024-03-17T00:10:13;3.18;77.94
57709;SHT35;42558;52.388;13.390;2024-03-17T00:12:43;3.13;78.13
57709;SHT35;42558;52.388;13.390;2024-03-17T00:15:12;3.10;78.43
57709;SHT35;42558;52.388;13.390;2024-03-17T00:17:43;3.10;78.25
57709;SHT35;42558;52.388;13.390;2024-03-17T00:20:12;3.07;78.32
57709;SHT35;42558;52.388;13.390;2024-03-17T00:22:47;3.06;78.35
57709;SHT35;42558;52.388;13.390;2024-03-17T00:25:19;3.09;78.24
57709;SHT35;42558;52.388;13.390;2024-03-17T00:27:48;3.08;78.34
57709;SHT35;42558;52.388;13.390;2024-03-17T00:30:18;3.17;77.97
57709;SHT35;42558;52.388;13.390;2024-03-17T00:32:48;3.18;77.69
57709;SHT35;42558;52.388;13.390;2024-03-17T00:35:17;3.14;77.85
57709;SHT35;42558;52.388;13.390;2024-03-17T00:37:48;3.15;77.72
57709;SHT35;42558;52.388;13.390;2024-03-17T00:40:17;3.06;77.94
57709;SHT35;42558;52.388;13.390;2024-03-17T00:42:45;2.99;78.29
57709;SHT35;42558;52.388;13.390;2024-03-17T00:45:15;2.97;78.45
57709;SHT35;42558;52.388;13.390;2024-03-17T00:47:42;3.01;78.45
57709;SHT35;42558;52.388;13.390;2024-03-17T00:50:10;3.11;77.92
57709;SHT35;42558;52.388;13.390;2024-03-17T00:52:39;3.07;78.22
57709;SHT35;42558;52.388;13.390;2024-03-17T00:55:06;3.03;78.36
57709;SHT35;42558;52.388;13.390;2024-03-17T00:57:34;3.05;78.39
57709;SHT35;42558;52.388;13.390;2024-03-17T01:00:01;3.06;78.30
57709;SHT35;42558;52.388;13.390;2024-03-17T01:02:29;3.01;78.43
57709;SHT35;42558;52.388;13.390;2024-03-17T01:04:56;2.92;78.79
57709;SHT35;42558;52.388;13.390;2024-03-17T01:07:24;2.81;79.08
57709;SHT35;42558;52.388;13.390;2024-03-17T01:09:51;2.73;79.43
57709;SHT35;42558;52.388;13.390;2024-03-17T01:12:19;2.68;79.60
57709;SHT35;42558;52.388;13.390;2024-03-17T01:14:46;2.65;79.76
57709;SHT35;42558;52.388;13.390;2024-03-17T01:17:15;2.62;79.79
57709;SHT35;42558;52.388;13.390;2024-03-17T01:19:41;2.52;80.03
57709;SHT35;42558;52.388;13.390;2024-03-17T01:22:10;2.44;80.30
57709;SHT35;42558;52.388;13.390;2024-03-17T01:24:37;2.43;80.46
57709;SHT35;42558;52.388;13.390;2024-03-17T01:27:09;2.43;80.54
57709;SHT35;42558;52.388;13.390;2024-03-17T01:29:42;2.38;80.33
57709;SHT35;42558;52.388;13.390;2024-03-17T01:32:12;2.27;80.78
57709;SHT35;42558;52.388;13.390;2024-03-17T01:34:41;2.20;81.10
57709;SHT35;42558;52.388;13.390;2024-03-17T01:37:10;2.14;81.41
57709;SHT35;42558;52.388;13.390;2024-03-17T01:39:38;2.09;81.63
57709;SHT35;42558;52.388;13.390;2024-03-17T01:42:07;2.09;81.86
57709;SHT35;42558;52.388;13.390;2024-03-17T01:44:36;2.06;81.64
57709;SHT35;42558;52.388;13.390;2024-03-17T01:47:05;2.01;81.89
57709;SHT35;42558;52.388;13.390;2024-03-17T01:49:37;1.99;81.89
57709;SHT35;42558;52.388;13.390;2024-03-17T01:52:06;1.97;82.01
57709;SHT35;42558;52.388;13.390;2024-03-17T01:54:35;2.02;81.90
57709;SHT35;42558;52.388;13.390;2024-03-17T01:57:05;2.08;81.61
57709;SHT35;42558;52.388;13.390;2024-03-17T01:59:35;2.03;81.36
57709;SHT35;42558;52.388;13.390;2024-03-17T02:02:04;2.04;81.48
57709;SHT35;42558;52.388;13.390;2024-03-17T02:04:34;2.04;81.36
57709;SHT35;42558;52.388;13.390;2024-03-17T02:07:03;1.97;81.46
57709;SHT35;42558;52.388;13.390;2024-03-17T02:09:32;1.92;81.58
57709;SHT35;42558;52.388;13.390;2024-03-17T02:12:01;1.84;81.50
57709;SHT35;42558;52.388;13.390;2024-03-17T02:14:30;1.79;81.73
57709;SHT35;42558;52.388;13.390;2024-03-17T02:17:00;1.72;81.85
57709;SHT35;42558;52.388;13.390;2024-03-17T02:19:28;1.72;82.06
57709;SHT35;42558;52.388;13.390;2024-03-17T02:21:57;1.65;81.77
57709;SHT35;42558;52.388;13.390;2024-03-17T02:24:26;1.57;82.18
57709;SHT35;42558;52.388;13.390;2024-03-17T02:26:55;1.53;82.31
57709;SHT35;42558;52.388;13.390;2024-03-17T02:29:24;1.50;82.32
57709;SHT35;42558;52.388;13.390;2024-03-17T02:31:53;1.49;82.46
57709;SHT35;42558;52.388;13.390;2024-03-17T02:34:22;1.47;82.37
57709;SHT35;42558;52.388;13.390;2024-03-17T02:36:52;1.42;82.33
57709;SHT35;42558;52.388;13.390;2024-03-17T02:39:21;1.39;82.63
57709;SHT35;42558;52.388;13.390;2024-03-17T02:42:19;1.39;82.64
57709;SHT35;42558;52.388;13.390;2024-03-17T02:44:48;1.38;82.54
57709;SHT35;42558;52.388;13.390;2024-03-17T02:47:17;1.32;82.58
57709;SHT35;42558;52.388;13.390;2024-03-17T02:49:46;1.29;82.88
57709;SHT35;42558;52.388;13.390;2024-03-17T02:52:18;1.28;83.10
57709;SHT35;42558;52.388;13.390;2024-03-17T02:54:47;1.23;83.10
57709;SHT35;42558;52.388;13.390;2024-03-17T02:57:16;1.22;83.30
57709;SHT35;42558;52.388;13.390;2024-03-17T02:59:42;1.17;83.35
57709;SHT35;42558;52.388;13.390;2024-03-17T03:02:09;1.15;83.44
57709;SHT35;42558;52.388;13.390;2024-03-17T03:04:38;1.29;83.88
57709;SHT35;42558;52.388;13.390;2024-03-17T03:07:07;1.28;83.45
57709;SHT35;42558;52.388;13.390;2024-03-17T03:09:36;1.26;83.72
57709;SHT35;42558;52.388;13.390;2024-03-17T03:12:05;1.29;83.80
57709;SHT35;42558;52.388;13.390;2024-03-17T03:14:36;1.34;83.88
57709;SHT35;42558;52.388;13.390;2024-03-17T03:17:05;1.34;83.73
57709;SHT35;42558;52.388;13.390;2024-03-17T03:19:34;1.38;83.94
57709;SHT35;42558;52.388;13.390;2024-03-17T03:22:03;1.46;83.88
57709;SHT35;42558;52.388;13.390;2024-03-17T03:24:32;1.49;83.85
57709;SHT35;42558;52.388;13.390;2024-03-17T03:27:01;1.50;83.74
57709;SHT35;42558;52.388;13.390;2024-03-17T03:29:30;1.47;83.92
57709;SHT35;42558;52.388;13.390;2024-03-17T03:31:58;1.46;84.04
57709;SHT35;42558;52.388;13.390;2024-03-17T03:34:27;1.46;84.05
57709;SHT35;42558;52.388;13.390;2024-03-17T03:36:56;1.54;84.28
57709;SHT35;42558;52.388;13.390;2024-03-17T03:39:25;1.63;84.06
57709;SHT35;42558;52.388;13.390;2024-03-17T03:41:59;1.64;83.82
57709;SHT35;42558;52.388;13.390;2024-03-17T03:44:28;1.60;83.97
57709;SHT35;42558;52.388;13.390;2024-03-17T03:46:58;1.63;84.16
57709;SHT35;42558;52.388;13.390;2024-03-17T03:49:29;1.56;84.11
57709;SHT35;42558;52.388;13.390;2024-03-17T03:51:58;1.54;84.53
57709;SHT35;42558;52.388;13.390;2024-03-17T03:54:27;1.62;84.74
57709;SHT35;42558;52.388;13.390;2024-03-17T03:56:56;1.54;84.62
57709;SHT35;42558;52.388;13.390;2024-03-17T03:59:25;1.52;84.93
57709;SHT35;42558;52.388;13.390;2024-03-17T04:01:54;1.48;85.01
57709;SHT35;42558;52.388;13.390;2024-03-17T04:04:23;1.55;85.50
57709;SHT35;42558;52.388;13.390;2024-03-17T04:06:52;1.61;85.37
57709;SHT35;42558;52.388;13.390;2024-03-17T04:09:21;1.56;85.13
57709;SHT35;42558;52.388;13.390;2024-03-17T04:11:50;1.48;85.32
57709;SHT35;42558;52.388;13.390;2024-03-17T04:14:19;1.52;85.73
57709;SHT35;42558;52.388;13.390;2024-03-17T04:16:48;1.56;85.70
57709;SHT35;42558;52.388;13.390;2024-03-17T04:19:17;1.52;85.59
57709;SHT35;42558;52.388;13.390;2024-03-17T04:21:46;1.52;85.76
57709;SHT35;42558;52.388;13.390;2024-03-17T04:24:15;1.52;85.92
57709;SHT35;42558;52.388;13.390;2024-03-17T04:26:43;1.56;85.90
57709;SHT35;42558;52.388;13.390;2024-03-17T04:29:12;1.47;85.67
57709;SHT35;42558;52.388;13.390;2024-03-17T04:31:39;1.47;86.20
57709;SHT35;42558;52.388;13.390;2024-03-17T04:34:07;1.49;86.25
57709;SHT35;42558;52.388;13.390;2024-03-17T04:36:34;1.54;86.43
57709;SHT35;42558;52.388;13.390;2024-03-17T04:39:03;1.50;86.32
57709;SHT35;42558;52.388;13.390;2024-03-17T04:41:36;1.49;86.47
57709;SHT35;42558;52.388;13.390;2024-03-17T04:44:06;1.47;86.48
57709;SHT35;42558;52.388;13.390;2024-03-17T04:46:35;1.39;86.35
57709;SHT35;42558;52.388;13.390;2024-03-17T04:49:04;1.36;86.73
57709;SHT35;42558;52.388;13.390;2024-03-17T04:51:33;1.30;86.64
57709;SHT35;42558;52.388;13.390;2024-03-17T04:54:03;1.24;86.82
57709;SHT35;42558;52.388;13.390;2024-03-17T04:56:32;1.20;86.85
57709;SHT35;42558;52.388;13.390;2024-03-17T04:59:01;1.17;87.01
57709;SHT35;42558;52.388;13.390;2024-03-17T05:01:30;1.16;87.23
57709;SHT35;42558;52.388;13.390;2024-03-17T05:04:04;1.25;87.76
57709;SHT35;42558;52.388;13.390;2024-03-17T05:06:33;1.29;87.78
57709;SHT35;42558;52.388;13.390;2024-03-17T05:09:02;1.24;87.55
57709;SHT35;42558;52.388;13.390;2024-03-17T05:11:33;1.15;87.33
57709;SHT35;42558;52.388;13.390;2024-03-17T05:14:03;1.13;87.51
57709;SHT35;42558;52.388;13.390;2024-03-17T05:16:32;1.13;87.71
57709;SHT35;42558;52.388;13.390;2024-03-17T05:19:01;1.13;87.93
57709;SHT35;42558;52.388;13.390;2024-03-17T05:21:31;1.05;87.64
57709;SHT35;42558;52.388;13.390;2024-03-17T05:24:01;1.01;87.61
57709;SHT35;42558;52.388;13.390;2024-03-17T05:26:31;1.00;87.73
57709;SHT35;42558;52.388;13.390;2024-03-17T05:29:00;1.04;88.07
57709;SHT35;42558;52.388;13.390;2024-03-17T05:31:29;1.02;87.96
57709;SHT35;42558;52.388;13.390;2024-03-17T05:33:59;1.00;88.00
57709;SHT35;42558;52.388;13.390;2024-03-17T05:36:28;1.02;88.11
57709;SHT35;42558;52.388;13.390;2024-03-17T05:39:00;0.98;88.08
57709;SHT35;42558;52.388;13.390;2024-03-17T05:41:29;1.07;88.44
57709;SHT35;42558;52.388;13.390;2024-03-17T05:43:58;1.05;88.28
57709;SHT35;42558;52.388;13.390;2024-03-17T05:46:27;1.03;88.14
57709;SHT35;42558;52.388;13.390;2024-03-17T05:48:56;1.00;88.03
57709;SHT35;42558;52.388;13.390;2024-03-17T05:51:25;0.95;87.89
57709;SHT35;42558;52.388;13.390;2024-03-17T05:53:56;0.98;88.12
57709;SHT35;42558;52.388;13.390;2024-03-17T05:56:26;1.04;88.29
57709;SHT35;42558;52.388;13.390;2024-03-17T05:58:55;1.04;88.19
57709;SHT35;42558;52.388;13.390;2024-03-17T06:01:24;1.13;88.47
57709;SHT35;42558;52.388;13.390;2024-03-17T06:03:53;1.21;88.48
57709;SHT35;42558;52.388;13.390;2024-03-17T06:06:22;1.35;88.59
57709;SHT35;42558;52.388;13.390;2024-03-17T06:08:51;1.45;88.50
57709;SHT35;42558;52.388;13.390;2024-03-17T06:11:19;1.54;88.29
57709;SHT35;42558;52.388;13.390;2024-03-17T06:13:48;1.63;88.14
57709;SHT35;42558;52.388;13.390;2024-03-17T06:16:19;1.72;87.99
57709;SHT35;42558;52.388;13.390;2024-03-17T06:18:48;1.80;87.80
57709;SHT35;42558;52.388;13.390;2024-03-17T06:21:20;1.90;87.63
57709;SHT35;42558;52.388;13.390;2024-03-17T06:23:49;1.98;87.40
57709;SHT35;42558;52.388;13.390;2024-03-17T06:26:17;2.06;87.22
57709;SHT35;42558;52.388;13.390;2024-03-17T06:28:46;2.19;87.11
57709;SHT35;42558;52.388;13.390;2024-03-17T06:31:15;2.22;86.80
57709;SHT35;42558;52.388;13.390;2024-03-17T06:33:44;2.35;86.62
57709;SHT35;42558;52.388;13.390;2024-03-17T06:36:13;2.50;86.13
57709;SHT35;42558;52.388;13.390;2024-03-17T06:38:42;2.60;85.70
57709;SHT35;42558;52.388;13.390;2024-03-17T06:41:11;2.70;85.48
57709;SHT35;42558;52.388;13.390;2024-03-17T06:43:43;2.83;85.32
57709;SHT35;42558;52.388;13.390;2024-03-17T06:46:12;2.97;84.98
57709;SHT35;42558;52.388;13.390;2024-03-17T06:48:41;3.14;84.61
57709;SHT35;42558;52.388;13.390;2024-03-17T06:51:10;3.29;83.98
57709;SHT35;42558;52.388;13.390;2024-03-17T06:53:39;3.40;83.41
57709;SHT35;42558;52.388;13.390;2024-03-17T06:56:08;3.57;82.87
57709;SHT35;42558;52.388;13.390;2024-03-17T06:58:37;3.73;82.02
57709;SHT35;42558;52.388;13.390;2024-03-17T07:01:07;3.91;81.14
57709;SHT35;42558;52.388;13.390;2024-03-17T07:03:37;4.10;80.70
57709;SHT35;42558;52.388;13.390;2024-03-17T07:06:07;4.26;79.72
57709;SHT35;42558;52.388;13.390;2024-03-17T07:08:36;4.41;78.98
57709;SHT35;42558;52.388;13.390;2024-03-17T07:11:06;4.68;78.30
57709;SHT35;42558;52.388;13.390;2024-03-17T07:13:36;4.63;77.53
57709;SHT35;42558;52.388;13.390;2024-03-17T07:16:07;4.56;77.17
57709;SHT35;42558;52.388;13.390;2024-03-17T07:18:36;4.51;76.89
57709;SHT35;42558;52.388;13.390;2024-03-17T07:21:05;4.53;77.23
57709;SHT35;42558;52.388;13.390;2024-03-17T07:23:34;4.48;76.44
57709;SHT35;42558;52.388;13.390;2024-03-17T07:26:03;4.55;76.36
57709;SHT35;42558;52.388;13.390;2024-03-17T07:28:37;4.68;76.08
57709;SHT35;42558;52.388;13.390;2024-03-17T07:31:08;4.69;75.64
57709;SHT35;42558;52.388;13.390;2024-03-17T07:33:38;4.72;75.29
57709;SHT35;42558;52.388;13.390;2024-03-17T07:36:07;4.89;74.39
57709;SHT35;42558;52.388;13.390;2024-03-17T07:38:38;5.03;74.50
57709;SHT35;42558;52.388;13.390;2024-03-17T07:41:08;4.97;74.14
57709;SHT35;42558;52.388;13.390;2024-03-17T07:43:35;5.11;74.23
57709;SHT35;42558;52.388;13.390;2024-03-17T07:46:03;5.34;72.75
57709;SHT35;42558;52.388;13.390;2024-03-17T07:48:34;5.35;71.95
57709;SHT35;42558;52.388;13.390;2024-03-17T07:51:12;5.19;72.20
57709;SHT35;42558;52.388;13.390;2024-03-17T07:53:44;5.14;72.56
57709;SHT35;42558;52.388;13.390;2024-03-17T07:56:16;5.38;72.33
57709;SHT35;42558;52.388;13.390;2024-03-17T07:58:45;5.73;71.31
57709;SHT35;42558;52.388;13.390;2024-03-17T08:01:16;5.87;71.62
57709;SHT35;42558;52.388;13.390;2024-03-17T08:03:46;6.11;70.01
57709;SHT35;42558;52.388;13.390;2024-03-17T08:06:23;6.35;69.10
57709;SHT35;42558;52.388;13.390;2024-03-17T08:08:52;6.64;68.64
57709;SHT35;42558;52.388;13.390;2024-03-17T08:11:23;6.76;68.30
57709;SHT35;42558;52.388;13.390;2024-03-17T08:13:55;7.08;66.86
57709;SHT35;42558;52.388;13.390;2024-03-17T08:16:24;7.24;67.08
57709;SHT35;42558;52.388;13.390;2024-03-17T08:18:52;7.03;66.38
57709;SHT35;42558;52.388;13.390;2024-03-17T08:21:21;6.97;65.80
57709;SHT35;42558;52.388;13.390;2024-03-17T08:23:51;6.80;66.81
57709;SHT35;42558;52.388;13.390;2024-03-17T08:26:20;7.34;65.32
57709;SHT35;42558;52.388;13.390;2024-03-17T08:28:49;7.23;65.27
57709;SHT35;42558;52.388;13.390;2024-03-17T08:31:18;7.24;64.62
57709;SHT35;42558;52.388;13.390;2024-03-17T08:33:46;7.09;64.14
57709;SHT35;42558;52.388;13.390;2024-03-17T08:36:16;7.24;63.66
57709;SHT35;42558;52.388;13.390;2024-03-17T08:38:48;7.39;63.72
57709;SHT35;42558;52.388;13.390;2024-03-17T08:41:17;7.68;63.05
57709;SHT35;42558;52.388;13.390;2024-03-17T08:43:46;7.15;62.77
57709;SHT35;42558;52.388;13.390;2024-03-17T08:46:15;6.78;64.15
57709;SHT35;42558;52.388;13.390;2024-03-17T08:48:44;6.82;64.23
57709;SHT35;42558;52.388;13.390;2024-03-17T08:51:13;6.62;64.17
57709;SHT35;42558;52.388;13.390;2024-03-17T08:53:42;6.97;64.29
57709;SHT35;42558;52.388;13.390;2024-03-17T08:56:11;7.24;63.22
57709;SHT35;42558;52.388;13.390;2024-03-17T08:58:40;7.59;61.98
57709;SHT35;42558;52.388;13.390;2024-03-17T09:01:09;7.62;61.49
57709;SHT35;42558;52.388;13.390;2024-03-17T09:03:44;7.31;62.04
57709;SHT35;42558;52.388;13.390;2024-03-17T09:06:14;7.27;62.21
57709;SHT35;42558;52.388;13.390;2024-03-17T09:08:44;7.27;62.35
57709;SHT35;42558;52.388;13.390;2024-03-17T09:11:14;7.27;62.63
57709;SHT35;42558;52.388;13.390;2024-03-17T09:13:43;7.46;62.38
57709;SHT35;42558;52.388;13.390;2024-03-17T09:16:12;7.64;60.93
57709;SHT35;42558;52.388;13.390;2024-03-17T09:18:42;7.70;61.61
57709;SHT35;42558;52.388;13.390;2024-03-17T09:21:10;7.56;61.19
57709;SHT35;42558;52.388;13.390;2024-03-17T09:23:41;7.46;61.53
57709;SHT35;42558;52.388;13.390;2024-03-17T09:26:10;7.91;60.87
57709;SHT35;42558;52.388;13.390;2024-03-17T09:28:42;8.68;59.37
57709;SHT35;42558;52.388;13.390;2024-03-17T09:31:12;9.13;57.42
57709;SHT35;42558;52.388;13.390;2024-03-17T09:33:41;9.30;56.10
57709;SHT35;42558;52.388;13.390;2024-03-17T09:36:10;8.70;57.16
57709;SHT35;42558;52.388;13.390;2024-03-17T09:38:42;8.45;57.75
57709;SHT35;42558;52.388;13.390;2024-03-17T09:43:55;7.95;58.84
57709;SHT35;42558;52.388;13.390;2024-03-17T09:46:26;7.69;60.23
57709;SHT35;42558;52.388;13.390;2024-03-17T09:48:57;8.24;59.70
57709;SHT35;42558;52.388;13.390;2024-03-17T09:51:26;8.52;57.98
57709;SHT35;42558;52.388;13.390;2024-03-17T09:53:55;8.42;57.73
57709;SHT35;42558;52.388;13.390;2024-03-17T09:56:24;8.69;56.83
57709;SHT35;42558;52.388;13.390;2024-03-17T09:58:53;7.97;59.35
57709;SHT35;42558;52.388;13.390;2024-03-17T10:01:22;7.65;61.47
57709;SHT35;42558;52.388;13.390;2024-03-17T10:03:52;8.54;60.95
57709;SHT35;42558;52.388;13.390;2024-03-17T10:06:32;9.16;57.50
57709;SHT35;42558;52.388;13.390;2024-03-17T10:09:01;9.43;58.77
57709;SHT35;42558;52.388;13.390;2024-03-17T10:11:33;9.60;57.32
57709;SHT35;42558;52.388;13.390;2024-03-17T10:14:05;9.77;57.08
57709;SHT35;42558;52.388;13.390;2024-03-17T10:16:39;9.75;56.64
57709;SHT35;42558;52.388;13.390;2024-03-17T10:19:13;10.01;55.69
57709;SHT35;42558;52.388;13.390;2024-03-17T10:21:45;9.97;56.76
57709;SHT35;42558;52.388;13.390;2024-03-17T10:26:53;9.33;56.35
57709;SHT35;42558;52.388;13.390;2024-03-17T10:29:31;9.18;56.05
57709;SHT35;42558;52.388;13.390;2024-03-17T10:32:05;9.68;55.97
57709;SHT35;42558;52.388;13.390;2024-03-17T10:34:42;10.22;54.33
57709;SHT35;42558;52.388;13.390;2024-03-17T10:37:15;10.54;54.03
57709;SHT35;42558;52.388;13.390;2024-03-17T10:39:50;9.92;55.06
57709;SHT35;42558;52.388;13.390;2024-03-17T10:42:27;9.84;55.61
57709;SHT35;42558;52.388;13.390;2024-03-17T10:44:59;9.68;56.20
57709;SHT35;42558;52.388;13.390;2024-03-17T10:47:28;9.79;57.82
57709;SHT35;42558;52.388;13.390;2024-03-17T10:49:58;9.27;57.15
57709;SHT35;42558;52.388;13.390;2024-03-17T10:52:33;9.38;58.91
57709;SHT35;42558;52.388;13.390;2024-03-17T10:55:07;9.41;57.30
57709;SHT35;42558;52.388;13.390;2024-03-17T10:57:41;8.99;57.38
57709;SHT35;42558;52.388;13.390;2024-03-17T11:00:17;8.65;57.29
57709;SHT35;42558;52.388;13.390;2024-03-17T11:02:53;8.51;58.07
57709;SHT35;42558;52.388;13.390;2024-03-17T11:05:24;9.11;57.62
57709;SHT35;42558;52.388;13.390;2024-03-17T11:07:59;9.28;56.13
57709;SHT35;42558;52.388;13.390;2024-03-17T11:10:31;8.84;56.00
57709;SHT35;42558;52.388;13.390;2024-03-17T11:13:04;9.03;57.15
57709;SHT35;42558;52.388;13.390;2024-03-17T11:20:41;9.80;57.49
57709;SHT35;42558;52.388;13.390;2024-03-17T11:23:37;10.92;54.38
57709;SHT35;42558;52.388;13.390;2024-03-17T11:26:06;10.65;53.63
57709;SHT35;42558;52.388;13.390;2024-03-17T11:34:01;10.35;53.07
57709;SHT35;42558;52.388;13.390;2024-03-17T11:41:52;9.08;54.23
57709;SHT35;42558;52.388;13.390;2024-03-17T11:46:51;9.59;54.08
57709;SHT35;42558;52.388;13.390;2024-03-17T11:49:23;10.36;53.79
57709;SHT35;42558;52.388;13.390;2024-03-17T11:51:58;10.37;52.59
57709;SHT35;42558;52.388;13.390;2024-03-17T11:54:32;10.62;51.87
57709;SHT35;42558;52.388;13.390;2024-03-17T11:57:07;10.06;52.39
57709;SHT35;42558;52.388;13.390;2024-03-17T11:59:44;10.06;53.87
57709;SHT35;42558;52.388;13.390;2024-03-17T12:02:27;10.45;53.28
57709;SHT35;42558;52.388;13.390;2024-03-17T12:05:00;10.31;51.63
57709;SHT35;42558;52.388;13.390;2024-03-17T12:07:30;10.49;52.61
57709;SHT35;42558;52.388;13.390;2024-03-17T12:09:59;10.32;51.30
57709;SHT35;42558;52.388;13.390;2024-03-17T12:12:28;10.77;52.25
57709;SHT35;42558;52.388;13.390;2024-03-17T12:15:05;11.24;51.36
57709;SHT35;42558;52.388;13.390;2024-03-17T12:17:51;10.16;51.62
57709;SHT35;42558;52.388;13.390;2024-03-17T12:20:21;9.95;53.39
57709;SHT35;42558;52.388;13.390;2024-03-17T12:22:49;10.17;52.63
57709;SHT35;42558;52.388;13.390;2024-03-17T12:25:19;10.15;53.03
57709;SHT35;42558;52.388;13.390;2024-03-17T12:27:49;9.98;52.27
57709;SHT35;42558;52.388;13.390;2024-03-17T12:30:17;9.83;52.42
57709;SHT35;42558;52.388;13.390;2024-03-17T12:32:44;9.78;53.53
57709;SHT35;42558;52.388;13.390;2024-03-17T12:35:14;9.63;52.57
57709;SHT35;42558;52.388;13.390;2024-03-17T12:37:45;9.60;53.63
57709;SHT35;42558;52.388;13.390;2024-03-17T12:40:17;9.46;53.41
57709;SHT35;42558;52.388;13.390;2024-03-17T12:42:49;9.35;52.31
57709;SHT35;42558;52.388;13.390;2024-03-17T12:45:22;9.19;52.61
57709;SHT35;42558;52.388;13.390;2024-03-17T12:47:51;9.23;52.70
57709;SHT35;42558;52.388;13.390;2024-03-17T12:50:21;9.02;53.13
57709;SHT35;42558;52.388;13.390;2024-03-17T12:52:51;8.71;53.94
57709;SHT35;42558;52.388;13.390;2024-03-17T12:55:23;8.83;53.71
57709;SHT35;42558;52.388;13.390;2024-03-17T12:58:11;8.61;53.24
57709;SHT35;42558;52.388;13.390;2024-03-17T13:01:02;8.58;53.71
57709;SHT35;42558;52.388;13.390;2024-03-17T13:03:33;8.97;52.58
57709;SHT35;42558;52.388;13.390;2024-03-17T13:06:05;9.49;51.51
57709;SHT35;42558;52.388;13.390;2024-03-17T13:08:51;10.02;52.05
57709;SHT35;42558;52.388;13.390;2024-03-17T13:11:20;9.98;51.35
57709;SHT35;42558;52.388;13.390;2024-03-17T13:13:49;10.42;51.46
57709;SHT35;42558;52.388;13.390;2024-03-17T13:16:18;10.50;48.61
57709;SHT35;42558;52.388;13.390;2024-03-17T13:18:47;10.52;48.30
57709;SHT35;42558;52.388;13.390;2024-03-17T13:21:15;10.47;49.62
57709;SHT35;42558;52.388;13.390;2024-03-17T13:23:44;11.11;49.47
57709;SHT35;42558;52.388;13.390;2024-03-17T13:26:13;10.59;48.42
57709;SHT35;42558;52.388;13.390;2024-03-17T13:28:42;10.00;49.63
57709;SHT35;42558;52.388;13.390;2024-03-17T13:31:11;9.89;50.41
57709;SHT35;42558;52.388;13.390;2024-03-17T13:33:41;9.47;50.48
57709;SHT35;42558;52.388;13.390;2024-03-17T13:36:10;9.58;50.34
57709;SHT35;42558;52.388;13.390;2024-03-17T13:38:39;9.28;50.80
57709;SHT35;42558;52.388;13.390;2024-03-17T13:41:10;9.25;52.00
57709;SHT35;42558;52.388;13.390;2024-03-17T13:43:39;9.03;52.00
57709;SHT35;42558;52.388;13.390;2024-03-17T13:46:08;8.79;51.71
57709;SHT35;42558;52.388;13.390;2024-03-17T13:48:37;8.75;50.79
57709;SHT35;42558;52.388;13.390;2024-03-17T13:51:08;8.60;52.13
57709;SHT35;42558;52.388;13.390;2024-03-17T13:53:38;8.70;53.54
57709;SHT35;42558;52.388;13.390;2024-03-17T13:56:06;8.93;52.31
57709;SHT35;42558;52.388;13.390;2024-03-17T13:58:38;9.01;51.87
57709;SHT35;42558;52.388;13.390;2024-03-17T14:01:07;9.22;51.81
57709;SHT35;42558;52.388;13.390;2024-03-17T14:03:37;9.90;50.77
57709;SHT35;42558;52.388;13.390;2024-03-17T14:06:06;9.42;50.46
57709;SHT35;42558;52.388;13.390;2024-03-17T14:08:37;9.14;51.68
57709;SHT35;42558;52.388;13.390;2024-03-17T14:11:06;8.82;53.53
57709;SHT35;42558;52.388;13.390;2024-03-17T14:13:35;8.73;53.46
57709;SHT35;42558;52.388;13.390;2024-03-17T14:16:03;8.57;53.81
57709;SHT35;42558;52.388;13.390;2024-03-17T14:18:33;8.56;54.20
57709;SHT35;42558;52.388;13.390;2024-03-17T14:21:02;8.60;53.92
57709;SHT35;42558;52.388;13.390;2024-03-17T14:23:32;8.55;53.09
57709;SHT35;42558;52.388;13.390;2024-03-17T14:26:02;9.27;52.66
57709;SHT35;42558;52.388;13.390;2024-03-17T14:28:32;9.46;51.49
57709;SHT35;42558;52.388;13.390;2024-03-17T14:31:01;9.45;51.34
57709;SHT35;42558;52.388;13.390;2024-03-17T14:33:33;9.16;51.11
57709;SHT35;42558;52.388;13.390;2024-03-17T14:36:02;8.99;51.48
57709;SHT35;42558;52.388;13.390;2024-03-17T14:38:32;8.89;51.98
57709;SHT35;42558;52.388;13.390;2024-03-17T14:41:01;9.02;52.35
57709;SHT35;42558;52.388;13.390;2024-03-17T14:43:33;9.51;51.33
57709;SHT35;42558;52.388;13.390;2024-03-17T14:46:06;9.82;50.06
57709;SHT35;42558;52.388;13.390;2024-03-17T14:48:36;10.31;49.86
57709;SHT35;42558;52.388;13.390;2024-03-17T14:51:05;10.35;49.31
57709;SHT35;42558;52.388;13.390;2024-03-17T14:53:33;9.99;48.89
57709;SHT35;42558;52.388;13.390;2024-03-17T14:56:02;9.96;49.91
57709;SHT35;42558;52.388;13.390;2024-03-17T14:58:30;9.85;49.99
57709;SHT35;42558;52.388;13.390;2024-03-17T15:00:58;9.62;50.16
57709;SHT35;42558;52.388;13.390;2024-03-17T15:03:27;9.60;50.11
57709;SHT35;42558;52.388;13.390;2024-03-17T15:05:55;9.84;50.94
57709;SHT35;42558;52.388;13.390;2024-03-17T15:08:23;10.11;50.49
57709;SHT35;42558;52.388;13.390;2024-03-17T15:10:52;9.95;50.48
57709;SHT35;42558;52.388;13.390;2024-03-17T15:13:20;10.05;50.53
57709;SHT35;42558;52.388;13.390;2024-03-17T15:15:49;10.07;50.35
57709;SHT35;42558;52.388;13.390;2024-03-17T15:18:17;10.38;49.89
57709;SHT35;42558;52.388;13.390;2024-03-17T15:20:51;10.31;48.93
57709;SHT35;42558;52.388;13.390;2024-03-17T15:23:21;9.97;49.47
57709;SHT35;42558;52.388;13.390;2024-03-17T15:25:51;9.91;49.37
57709;SHT35;42558;52.388;13.390;2024-03-17T15:28:19;10.19;50.18
57709;SHT35;42558;52.388;13.390;2024-03-17T15:30:48;10.32;48.94
57709;SHT35;42558;52.388;13.390;2024-03-17T15:33:17;9.91;49.36
57709;SHT35;42558;52.388;13.390;2024-03-17T15:35:46;9.80;50.02
57709;SHT35;42558;52.388;13.390;2024-03-17T15:38:15;9.83;50.08
57709;SHT35;42558;52.388;13.390;2024-03-17T15:40:44;9.86;50.32
57709;SHT35;42558;52.388;13.390;2024-03-17T15:43:15;9.85;49.40
57709;SHT35;42558;52.388;13.390;2024-03-17T15:45:45;9.88;49.72
57709;SHT35;42558;52.388;13.390;2024-03-17T15:48:14;9.72;49.71
57709;SHT35;42558;52.388;13.390;2024-03-17T15:50:43;9.52;50.30
57709;SHT35;42558;52.388;13.390;2024-03-17T15:53:12;9.37;49.96
57709;SHT35;42558;52.388;13.390;2024-03-17T15:55:41;9.27;50.43
57709;SHT35;42558;52.388;13.390;2024-03-17T15:58:10;9.24;50.41
57709;SHT35;42558;52.388;13.390;2024-03-17T16:00:39;9.32;50.58
57709;SHT35;42558;52.388;13.390;2024-03-17T16:03:08;9.39;51.22
57709;SHT35;42558;52.388;13.390;2024-03-17T16:05:37;9.33;50.72
57709;SHT35;42558;52.388;13.390;2024-03-17T16:08:09;9.36;50.30
57709;SHT35;42558;52.388;13.390;2024-03-17T16:10:38;9.60;49.37